createdAt,value
2023-04-22T00:02:59.939Z,7.11
2023-04-22T00:06:16.887Z,7.27
2023-04-22T00:09:34.332Z,6.99
2023-04-22T00:12:51.047Z,7.22
2023-04-22T00:16:08.063Z,7.36
2023-04-22T00:19:24.706Z,7.18
2023-04-22T00:22:41.089Z,7.29
2023-04-22T00:25:57.620Z,7.24
2023-04-22T00:29:14.013Z,7.13
2023-04-22T00:32:31.650Z,7.12
2023-04-22T00:35:49.363Z,6.90
2023-04-22T00:39:07.369Z,6.88
2023-04-22T00:42:24.376Z,7.04
2023-04-22T00:45:44.214Z,6.94
2023-04-22T00:49:02.158Z,6.86
2023-04-22T00:52:18.892Z,6.85
2023-04-22T00:55:36.718Z,6.73
2023-04-22T00:58:54.364Z,6.42
2023-04-22T01:02:12.878Z,6.43
2023-04-22T01:05:31.201Z,6.48
2023-04-22T01:08:48.117Z,6.43
2023-04-22T01:12:05.458Z,6.41
2023-04-22T01:15:23.044Z,6.34
2023-04-22T01:18:40.290Z,6.25
2023-04-22T01:21:58.572Z,6.09
2023-04-22T01:25:17.257Z,6.01
2023-04-22T01:28:34.344Z,6.13
2023-04-22T01:31:51.897Z,6.20
2023-04-22T01:35:09.686Z,6.25
2023-04-22T01:38:27.179Z,6.14
2023-04-22T01:41:44.436Z,6.07
2023-04-22T01:45:01.956Z,6.07
2023-04-22T01:48:18.504Z,5.98
2023-04-22T01:51:35.554Z,5.99
2023-04-22T01:54:52.877Z,5.95
2023-04-22T01:58:09.169Z,5.93
2023-04-22T02:01:27.431Z,5.95
2023-04-22T02:04:44.418Z,5.82
2023-04-22T02:08:04.211Z,5.71
2023-04-22T02:11:20.772Z,5.61
2023-04-22T02:14:37.078Z,5.63
2023-04-22T02:17:53.999Z,5.62
2023-04-22T02:21:10.914Z,5.69
2023-04-22T02:24:29.499Z,5.73
2023-04-22T02:27:47.935Z,5.67
2023-04-22T02:31:05.226Z,5.63
2023-04-22T02:34:21.768Z,5.57
2023-04-22T02:37:38.715Z,5.58
2023-04-22T02:40:55.946Z,5.50
2023-04-22T02:44:13.122Z,5.54
2023-04-22T02:47:29.868Z,5.53
2023-04-22T02:50:46.465Z,5.50
2023-04-22T02:54:03.145Z,5.50
2023-04-22T02:57:19.744Z,5.43
2023-04-22T03:00:37.578Z,5.40
2023-04-22T03:03:55.409Z,5.30
2023-04-22T03:07:12.314Z,5.25
2023-04-22T03:10:28.976Z,5.08
2023-04-22T03:13:45.333Z,5.12
2023-04-22T03:17:02.687Z,5.14
2023-04-22T03:20:20.885Z,5.11
2023-04-22T03:23:37.926Z,5.11
2023-04-22T03:26:54.385Z,5.04
2023-04-22T03:30:12.935Z,5.08
2023-04-22T03:33:30.314Z,5.10
2023-04-22T03:36:51.305Z,5.07
2023-04-22T03:40:08.781Z,5.07
2023-04-22T03:43:26.608Z,5.09
2023-04-22T03:46:45.783Z,5.07
2023-04-22T03:50:02.286Z,5.01
2023-04-22T03:53:20.124Z,5.01
2023-04-22T03:56:37.722Z,5.03
2023-04-22T03:59:54.136Z,5.08
2023-04-22T04:03:12.117Z,5.06
2023-04-22T04:06:29.318Z,5.12
2023-04-22T04:09:47.204Z,5.21
2023-04-22T04:13:04.066Z,5.26
2023-04-22T04:16:22.839Z,5.26
2023-04-22T04:19:42.298Z,5.32
2023-04-22T04:22:59.926Z,5.37
2023-04-22T04:26:17.579Z,5.26
2023-04-22T04:29:36.764Z,5.32
2023-04-22T04:32:55.503Z,5.48
2023-04-22T04:36:14.763Z,5.64
2023-04-22T04:39:32.385Z,5.77
2023-04-22T04:42:50.972Z,5.85
2023-04-22T04:46:09.447Z,5.90
2023-04-22T04:49:31.536Z,6.06
2023-04-22T04:52:49.822Z,6.10
2023-04-22T04:56:08.561Z,6.22
2023-04-22T04:59:26.585Z,6.39
2023-04-22T05:02:43.709Z,6.52
2023-04-22T05:06:00.677Z,6.58
2023-04-22T05:09:18.473Z,6.67
2023-04-22T05:12:36.158Z,6.86
2023-04-22T05:15:54.532Z,7.01
2023-04-22T05:19:13.786Z,7.14
2023-04-22T05:22:31.207Z,7.28
2023-04-22T05:25:49.176Z,7.43
2023-04-22T05:29:07.909Z,7.63
2023-04-22T05:32:26.302Z,7.82
2023-04-22T05:35:45.561Z,8.00
2023-04-22T05:39:06.998Z,8.22
2023-04-22T05:42:30.036Z,8.41
2023-04-22T05:45:52.645Z,8.52
2023-04-22T05:49:11.211Z,8.72
2023-04-22T05:52:46.232Z,8.96
2023-04-22T05:56:04.792Z,9.22
2023-04-22T05:59:22.207Z,9.44
2023-04-22T06:02:46.946Z,9.58
2023-04-22T06:06:06.011Z,9.76
2023-04-22T06:09:22.845Z,10.00
2023-04-22T06:12:41.730Z,10.23
2023-04-22T06:15:58.749Z,10.54
2023-04-22T06:19:16.971Z,10.83
2023-04-22T06:22:33.510Z,11.35
2023-04-22T06:25:50.755Z,11.81
2023-04-22T06:29:08.053Z,11.98
2023-04-22T06:32:25.694Z,12.25
2023-04-22T06:35:42.282Z,12.49
2023-04-22T06:38:58.672Z,12.79
2023-04-22T06:42:17.447Z,13.04
2023-04-22T06:45:38.382Z,13.16
2023-04-22T06:49:12.681Z,13.47
2023-04-22T06:52:48.805Z,13.81
2023-04-22T06:56:06.164Z,13.99
2023-04-22T06:59:23.490Z,14.26
2023-04-22T07:02:39.780Z,14.50
2023-04-22T07:05:56.201Z,14.77
2023-04-22T07:09:13.536Z,15.04
2023-04-22T07:12:31.013Z,15.36
2023-04-22T07:15:50.286Z,15.71
2023-04-22T07:19:06.897Z,15.99
2023-04-22T07:22:23.384Z,16.48
2023-04-22T07:25:40.148Z,16.98
2023-04-22T07:28:56.606Z,17.53
2023-04-22T07:32:13.131Z,18.13
2023-04-22T07:35:29.572Z,18.59
2023-04-22T07:38:46.166Z,19.12
2023-04-22T07:42:03.129Z,19.51
2023-04-22T07:45:20.457Z,20.09
2023-04-22T07:48:37.419Z,20.31
2023-04-22T07:51:54.142Z,20.79
2023-04-22T07:55:11.092Z,21.28
2023-04-22T07:58:27.517Z,21.78
2023-04-22T08:01:43.878Z,21.90
2023-04-22T08:05:00.250Z,21.96
2023-04-22T08:08:17.340Z,22.36
2023-04-22T08:11:34.959Z,23.17
2023-04-22T08:14:52.298Z,22.38
2023-04-22T08:18:08.695Z,23.03
2023-04-22T08:21:28.379Z,23.65
2023-04-22T08:24:44.623Z,23.55
2023-04-22T08:28:01.276Z,23.90
2023-04-22T08:31:17.631Z,23.48
2023-04-22T08:34:34.031Z,23.83
2023-04-22T08:37:50.468Z,23.93
2023-04-22T08:41:07.580Z,24.06
2023-04-22T08:44:24.671Z,23.81
2023-04-22T08:47:42.765Z,24.21
2023-04-22T08:51:01.520Z,24.29
2023-04-22T08:54:18.022Z,24.52
2023-04-22T08:57:35.224Z,24.45
2023-04-22T09:00:52.539Z,22.99
2023-04-22T09:04:10.729Z,21.85
2023-04-22T09:07:31.313Z,23.16
2023-04-22T09:10:48.598Z,23.67
2023-04-22T09:14:05.172Z,23.99
2023-04-22T09:17:23.384Z,23.35
2023-04-22T09:20:40.343Z,23.63
2023-04-22T09:24:00.465Z,23.81
2023-04-22T09:27:17.168Z,23.36
2023-04-22T09:30:37.536Z,23.29
2023-04-22T09:34:00.003Z,23.17
2023-04-22T09:37:17.347Z,23.01
2023-04-22T09:40:36.739Z,22.94
2023-04-22T09:43:53.483Z,23.06
2023-04-22T09:47:11.565Z,22.93
2023-04-22T09:50:33.390Z,22.64
2023-04-22T09:53:49.777Z,22.89
2023-04-22T09:57:07.873Z,22.73
2023-04-22T10:00:26.714Z,22.49
2023-04-22T10:03:43.254Z,22.58
2023-04-22T10:07:03.346Z,22.60
2023-04-22T10:10:20.405Z,22.61
2023-04-22T10:13:37.417Z,22.60
2023-04-22T10:16:56.371Z,22.63
2023-04-22T10:20:18.706Z,22.59
2023-04-22T10:23:38.123Z,22.40
2023-04-22T10:27:03.830Z,22.37
2023-04-22T10:30:39.244Z,22.26
2023-04-22T10:33:55.729Z,21.10
2023-04-22T10:37:16.578Z,20.97
2023-04-22T10:40:32.853Z,21.86
2023-04-22T10:43:54.957Z,21.56
2023-04-22T10:47:11.387Z,21.92
2023-04-22T10:50:32.184Z,21.62
2023-04-22T10:53:48.874Z,21.48
2023-04-22T10:57:12.974Z,21.87
2023-04-22T11:00:54.192Z,21.45
2023-04-22T11:04:29.643Z,20.85
2023-04-22T11:07:46.469Z,21.12
2023-04-22T11:11:06.208Z,21.23
2023-04-22T11:14:23.642Z,21.15
2023-04-22T11:17:41.202Z,21.27
2023-04-22T11:20:59.506Z,21.22
2023-04-22T11:24:19.020Z,21.23
2023-04-22T11:27:36.180Z,20.89
2023-04-22T11:30:53.194Z,20.71
2023-04-22T11:34:11.577Z,20.62
2023-04-22T11:37:31.960Z,20.73
2023-04-22T11:40:50.762Z,20.82
2023-04-22T11:44:04.946Z,20.79
2023-04-22T11:47:20.987Z,20.79
2023-04-22T11:50:40.145Z,20.45
2023-04-22T11:54:01.797Z,20.15
2023-04-22T11:57:18.841Z,20.16
2023-04-22T12:00:41.332Z,20.07
2023-04-22T12:04:01.260Z,20.13
2023-04-22T12:07:17.877Z,20.19
2023-04-22T12:10:34.929Z,20.06
2023-04-22T12:13:55.083Z,19.90
2023-04-22T12:17:17.388Z,19.87
2023-04-22T12:20:40.688Z,19.78
2023-04-22T12:23:59.928Z,19.75
2023-04-22T12:27:16.441Z,19.70
2023-04-22T12:30:32.706Z,19.55
2023-04-22T12:33:49.945Z,19.35
2023-04-22T12:37:07.976Z,19.20
2023-04-22T12:40:24.377Z,19.22
2023-04-22T12:43:41.719Z,19.17
2023-04-22T12:46:58.552Z,19.02
2023-04-22T12:50:16.831Z,18.99
2023-04-22T12:53:33.795Z,18.99
2023-04-22T12:56:52.930Z,19.06
2023-04-22T13:00:11.832Z,19.08
2023-04-22T13:03:28.697Z,19.08
2023-04-22T13:06:45.378Z,19.13
2023-04-22T13:10:01.718Z,19.04
2023-04-22T13:13:19.283Z,19.07
2023-04-22T13:16:35.995Z,19.08
2023-04-22T13:19:52.849Z,19.05
2023-04-22T13:23:10.613Z,18.97
2023-04-22T13:26:29.830Z,18.92
2023-04-22T13:29:46.818Z,18.91
2023-04-22T13:33:03.222Z,18.94
2023-04-22T13:36:19.627Z,18.90
2023-04-22T13:39:36.985Z,18.86
2023-04-22T13:42:53.308Z,18.77
2023-04-22T13:46:09.924Z,18.72
2023-04-22T13:49:28.136Z,18.71
2023-04-22T13:52:45.168Z,18.71
2023-04-22T13:56:01.463Z,18.66
2023-04-22T13:59:17.964Z,18.66
2023-04-22T14:02:34.292Z,18.65
2023-04-22T14:05:50.793Z,18.65
2023-04-22T14:09:08.023Z,18.67
2023-04-22T14:12:24.587Z,18.68
2023-04-22T14:15:41.006Z,18.70
2023-04-22T14:18:57.387Z,18.67
2023-04-22T14:22:13.730Z,18.66
2023-04-22T14:25:30.101Z,18.66
2023-04-22T14:28:48.264Z,18.66
2023-04-22T14:32:04.668Z,18.64
2023-04-22T14:35:21.111Z,18.62
2023-04-22T14:38:37.348Z,18.61
2023-04-22T14:41:53.683Z,18.63
2023-04-22T14:45:10.443Z,18.65
2023-04-22T14:48:28.497Z,18.64
2023-04-22T14:51:44.750Z,18.56
2023-04-22T14:55:05.935Z,18.55
2023-04-22T14:58:19.150Z,18.52
2023-04-22T15:01:36.895Z,18.53
2023-04-22T15:04:53.674Z,18.49
2023-04-22T15:08:10.416Z,18.49
2023-04-22T15:11:26.856Z,18.46
2023-04-22T15:14:44.035Z,18.49
2023-04-22T15:18:00.516Z,18.46
2023-04-22T15:21:19.920Z,18.38
2023-04-22T15:24:36.748Z,18.35
2023-04-22T15:27:54.144Z,18.32
2023-04-22T15:31:12.683Z,18.32
2023-04-22T15:34:29.423Z,18.33
2023-04-22T15:37:46.066Z,18.32
2023-04-22T15:41:02.392Z,18.31
2023-04-22T15:44:18.818Z,18.25
2023-04-22T15:47:36.968Z,18.22
2023-04-22T15:50:53.311Z,18.19
2023-04-22T15:54:09.755Z,18.19
2023-04-22T15:57:25.688Z,18.15
2023-04-22T16:00:42.232Z,18.14
2023-04-22T16:04:00.489Z,18.15
2023-04-22T16:07:19.190Z,18.09
2023-04-22T16:10:35.997Z,18.05
2023-04-22T16:13:52.348Z,18.03
2023-04-22T16:17:09.433Z,18.03
2023-04-22T16:20:25.741Z,18.01
2023-04-22T16:23:42.417Z,17.98
2023-04-22T16:26:59.257Z,17.95
2023-04-22T16:30:18.594Z,17.89
2023-04-22T16:33:35.899Z,17.85
2023-04-22T16:36:52.186Z,17.82
2023-04-22T16:40:09.978Z,17.78
2023-04-22T16:43:26.324Z,17.76
2023-04-22T16:46:42.809Z,17.73
2023-04-22T16:49:59.808Z,17.70
2023-04-22T16:53:16.379Z,17.66
2023-04-22T16:56:33.884Z,17.63
2023-04-22T16:59:50.261Z,17.60
2023-04-22T17:03:07.188Z,17.55
2023-04-22T17:06:23.598Z,17.53
2023-04-22T17:09:39.981Z,17.51
2023-04-22T17:12:56.587Z,17.48
2023-04-22T17:16:13.373Z,17.42
2023-04-22T17:19:30.185Z,17.38
2023-04-22T17:22:46.900Z,17.32
2023-04-22T17:26:02.939Z,17.26
2023-04-22T17:29:21.109Z,17.24
2023-04-22T17:32:37.965Z,17.21
2023-04-22T17:35:54.846Z,17.11
2023-04-22T17:39:11.086Z,17.08
2023-04-22T17:42:38.778Z,17.01
2023-04-22T17:45:45.931Z,16.96
2023-04-22T17:49:02.626Z,16.89
2023-04-22T17:52:19.237Z,16.86
2023-04-22T17:55:40.878Z,16.81
2023-04-22T17:58:57.688Z,16.74
2023-04-22T18:02:14.450Z,16.70
2023-04-22T18:05:31.656Z,16.65
2023-04-22T18:08:48.119Z,16.62
2023-04-22T18:12:05.521Z,16.54
2023-04-22T18:15:23.966Z,16.52
2023-04-22T18:18:40.957Z,16.47
2023-04-22T18:22:00.281Z,16.40
2023-04-22T18:25:16.936Z,16.36
2023-04-22T18:28:33.435Z,16.33
2023-04-22T18:31:50.095Z,16.26
2023-04-22T18:35:06.822Z,16.17
2023-04-22T18:38:23.933Z,16.14
2023-04-22T18:41:40.958Z,15.96
2023-04-22T18:44:57.607Z,15.77
2023-04-22T18:48:14.136Z,15.79
2023-04-22T18:51:31.010Z,15.72
2023-04-22T18:54:47.979Z,15.72
2023-04-22T18:58:04.303Z,15.71
2023-04-22T19:01:20.849Z,15.41
2023-04-22T19:04:39.351Z,15.31
2023-04-22T19:07:56.616Z,15.30
2023-04-22T19:11:13.834Z,15.30
2023-04-22T19:14:31.848Z,15.28
2023-04-22T19:17:49.334Z,15.20
2023-04-22T19:21:08.074Z,15.15
2023-04-22T19:24:25.056Z,15.07
2023-04-22T19:27:41.907Z,15.02
2023-04-22T19:31:00.942Z,14.94
2023-04-22T19:34:16.385Z,14.93
2023-04-22T19:37:32.539Z,14.89
2023-04-22T19:40:49.273Z,14.82
2023-04-22T19:44:06.681Z,14.75
2023-04-22T19:47:24.821Z,14.77
2023-04-22T19:50:43.624Z,14.79
2023-04-22T19:54:02.798Z,14.80
2023-04-22T19:57:21.482Z,14.77
2023-04-22T20:00:40.078Z,14.75
2023-04-22T20:03:58.447Z,14.65
2023-04-22T20:07:17.704Z,14.66
2023-04-22T20:10:36.215Z,14.61
2023-04-22T20:13:56.533Z,14.68
2023-04-22T20:17:14.559Z,14.67
2023-04-22T20:20:31.914Z,14.38
2023-04-22T20:23:50.064Z,13.96
2023-04-22T20:27:06.698Z,13.74
2023-04-22T20:30:27.317Z,13.36
2023-04-22T20:33:44.264Z,13.05
2023-04-22T20:37:03.090Z,12.69
2023-04-22T20:40:24.606Z,12.42
2023-04-22T20:43:42.092Z,12.29
2023-04-22T20:46:59.846Z,11.83
2023-04-22T20:50:18.709Z,11.76
2023-04-22T20:53:35.717Z,11.57
2023-04-22T20:56:52.703Z,11.51
2023-04-22T21:00:11.129Z,11.32
2023-04-22T21:03:30.036Z,11.28
2023-04-22T21:06:47.968Z,11.19
2023-04-22T21:10:05.515Z,11.12
2023-04-22T21:13:23.450Z,11.05
2023-04-22T21:16:42.350Z,11.06
2023-04-22T21:20:00.770Z,11.01
2023-04-22T21:23:18.102Z,10.88
2023-04-22T21:26:35.645Z,10.80
2023-04-22T21:29:53.995Z,10.75
2023-04-22T21:33:12.795Z,10.64
2023-04-22T21:36:30.786Z,10.79
2023-04-22T21:39:48.041Z,10.77
2023-04-22T21:43:05.412Z,10.71
2023-04-22T21:46:23.014Z,10.71
2023-04-22T21:49:39.497Z,10.63
2023-04-22T21:52:56.528Z,10.51
2023-04-22T21:56:13.290Z,10.43
2023-04-22T21:59:30.104Z,10.23
2023-04-22T22:02:46.567Z,10.25
2023-04-22T22:06:03.157Z,10.12
2023-04-22T22:09:19.747Z,10.27
2023-04-22T22:12:37.131Z,10.38
2023-04-22T22:15:55.919Z,10.33
2023-04-22T22:19:12.678Z,10.39
2023-04-22T22:22:29.105Z,10.46
2023-04-22T22:25:45.554Z,10.58
2023-04-22T22:29:02.643Z,10.79
2023-04-22T22:32:19.022Z,10.85
2023-04-22T22:35:35.646Z,10.88
2023-04-22T22:38:51.989Z,10.81
2023-04-22T22:42:08.455Z,10.63
2023-04-22T22:45:25.328Z,10.57
2023-04-22T22:48:42.187Z,10.36
2023-04-22T22:51:58.653Z,10.25
2023-04-22T22:55:16.415Z,10.19
2023-04-22T22:58:35.107Z,9.99
2023-04-22T23:01:51.555Z,9.94
2023-04-22T23:05:10.512Z,9.82
2023-04-22T23:08:26.466Z,9.67
2023-04-22T23:11:42.818Z,9.57
2023-04-22T23:14:59.077Z,9.59
2023-04-22T23:18:18.432Z,9.56
2023-04-22T23:21:36.773Z,9.44
2023-04-22T23:24:55.120Z,9.29
2023-04-22T23:28:13.649Z,9.11
2023-04-22T23:31:31.285Z,8.99
2023-04-22T23:34:52.019Z,8.94
2023-04-22T23:38:09.851Z,8.99
2023-04-22T23:41:26.547Z,8.91
2023-04-22T23:44:43.121Z,8.88
2023-04-22T23:48:00.051Z,8.78
2023-04-22T23:51:17.798Z,8.72
2023-04-22T23:54:36.394Z,8.74
2023-04-22T23:57:54.928Z,8.71
